Time;durP1;ratioP1;P1;durP2;ratioP2;P2;SDS_P1;SDS_P2;PMS_P1;PMS_P2;Temp;Humidity;BMP_temperature;BMP_pressure;BME280_temperature;BME280_humidity;BME280_pressure;Samples;Min_cycle;Max_cycle;Signal;HPM_P1;HPM_P2
2022/02/17 00:02:36;;;;;;;;;;;;;;;7.94;72.72;96740.02;218563;1278;22592;-68
2022/02/17 00:07:48;;;;;;;;;;;;;;;8.01;72.85;96748.52;218484;1278;23997;-68
2022/02/17 00:13:04;;;;;;;;;;;;;;;8.06;72.46;96738.11;218412;1278;22576;-67
2022/02/17 00:18:24;;;;;;;;;;;;;;;;;;;;;
2022/02/17 00:23:27;;;;;;;;;;;;;;;8.14;72.30;96741.30;218331;1277;24139;-69
2022/02/17 00:28:37;;;;;;;;;;;;;;;8.23;72.37;96716.27;218117;1281;22550;-68
2022/02/17 00:33:43;;;;;;;;;;;;;;;8.31;72.07;96701.52;218453;1278;22704;-68
2022/02/17 00:38:45;;;;;;;;;;;;;;;8.39;71.92;96696.90;218301;1278;22551;-68
2022/02/17 00:43:53;;;;;;;;;;;;;;;8.46;71.69;96714.96;218458;1277;24308;-69
2022/02/17 00:49:37;;;;;;;;;;;;;;;8.56;71.72;96714.92;218131;1278;22551;-68
2022/02/17 00:54:53;;;;;;;;;;;;;;;8.70;71.58;96702.89;218323;1277;25257;-68
2022/02/17 01:00:32;;;;;;;;;;;;;;;8.79;71.60;96690.36;218449;1277;25380;-68
2022/02/17 01:05:57;;;;;;;;;;;;;;;8.85;71.51;96682.42;218256;1277;22673;-68
2022/02/17 01:11:12;;;;;;;;;;;;;;;8.86;71.69;96670.24;218197;1278;22550;-69
2022/02/17 01:16:41;;;;;;;;;;;;;;;8.83;71.92;96627.67;218194;1278;24269;-70
2022/02/17 01:22:51;;;;;;;;;;;;;;;;;;;;;
2022/02/17 01:28:36;;;;;;;;;;;;;;;8.82;72.17;96637.02;218362;1278;22528;-67
2022/02/17 01:33:55;;;;;;;;;;;;;;;8.83;72.34;96637.05;218460;1277;24843;-68
2022/02/17 01:39:38;;;;;;;;;;;;;;;8.80;72.48;96610.31;218295;1277;22702;-69
2022/02/17 01:45:23;;;;;;;;;;;;;;;8.85;72.60;96614.61;218543;1277;22546;-68
2022/02/17 01:51:08;;;;;;;;;;;;;;;8.85;73.47;96567.77;218381;1277;22533;-68
2022/02/17 01:56:39;;;;;;;;;;;;;;;8.76;74.88;96543.52;218504;1277;22535;-68
2022/02/17 02:02:26;;;;;;;;;;;;;;;8.56;76.50;96524.41;218448;1277;22522;-68
2022/02/17 02:08:03;;;;;;;;;;;;;;;8.32;78.20;96467.16;218389;1277;26640;-68
2022/02/17 02:13:24;;;;;;;;;;;;;;;8.08;79.81;96434.27;218308;1277;22563;-68
2022/02/17 02:18:46;;;;;;;;;;;;;;;7.90;80.09;96434.44;218305;1277;24449;-68
2022/02/17 02:23:51;;;;;;;;;;;;;;;7.82;81.44;96439.11;218422;1277;22563;-68
2022/02/17 02:28:54;;;;;;;;;;;;;;;7.74;82.60;96423.98;218344;1277;22556;-68
2022/02/17 02:33:59;;;;;;;;;;;;;;;7.66;83.14;96413.95;218433;1277;22567;-68
2022/02/17 02:39:21;;;;;;;;;;;;;;;;;;;;;
2022/02/17 02:44:34;;;;;;;;;;;;;;;7.52;84.80;96363.97;218641;1277;23265;-68
2022/02/17 02:49:42;;;;;;;;;;;;;;;7.54;85.10;96339.84;218383;1278;22562;-68
2022/02/17 02:54:59;;;;;;;;;;;;;;;;;;;;;
2022/02/17 03:00:43;;;;;;;;;;;;;;;;;;;;;
2022/02/17 03:06:30;;;;;;;;;;;;;;;7.79;85.12;96300.08;218450;1277;22721;-69
2022/02/17 03:12:11;;;;;;;;;;;;;;;7.92;85.61;96290.25;218398;1277;22532;-68
2022/02/17 03:17:28;;;;;;;;;;;;;;;8.06;85.22;96275.53;218320;1277;24346;-68
2022/02/17 03:22:30;;;;;;;;;;;;;;;8.14;84.93;96264.34;218234;1277;22565;-68
2022/02/17 03:27:37;;;;;;;;;;;;;;;8.22;84.71;96259.86;218367;1277;26002;-68
2022/02/17 03:33:02;;;;;;;;;;;;;;;8.26;84.72;96242.77;218535;1278;22890;-67
2022/02/17 03:38:10;;;;;;;;;;;;;;;8.29;84.37;96244.08;218354;1277;25416;-67
2022/02/17 03:43:17;;;;;;;;;;;;;;;8.30;84.48;96268.48;218237;1277;22560;-68
2022/02/17 03:48:20;;;;;;;;;;;;;;;8.41;84.39;96274.62;218257;1277;24445;-68
2022/02/17 03:53:28;;;;;;;;;;;;;;;8.48;84.09;96275.85;218337;1277;22550;-68
2022/02/17 04:04:02;;;;;;;;;;;;;;;8.64;83.58;96261.91;218412;1277;24299;-69
2022/02/17 04:09:05;;;;;;;;;;;;;;;8.69;83.24;96224.69;218400;1277;24332;-68
2022/02/17 04:14:09;;;;;;;;;;;;;;;8.77;83.36;96205.30;218494;1278;22550;-67
2022/02/17 04:19:27;;;;;;;;;;;;;;;8.86;82.95;96191.54;218495;1277;22590;-68
2022/02/17 04:24:59;;;;;;;;;;;;;;;8.96;82.95;96186.21;218345;1277;22999;-68
2022/02/17 04:30:05;;;;;;;;;;;;;;;9.08;82.70;96190.81;218386;1278;22551;-68
2022/02/17 04:35:30;;;;;;;;;;;;;;;9.17;82.28;96189.73;218304;1278;22531;-68
2022/02/17 04:46:24;;;;;;;;;;;;;;;9.30;81.96;96131.30;218400;1277;22544;-68
2022/02/17 04:51:58;;;;;;;;;;;;;;;9.35;81.76;96115.52;218356;1277;22550;-67
2022/02/17 04:57:44;;;;;;;;;;;;;;;;;;;;;
2022/02/17 05:03:11;;;;;;;;;;;;;;;9.42;81.35;96119.46;218626;1277;22541;-68
2022/02/17 05:08:24;;;;;;;;;;;;;;;9.49;81.26;96121.20;218428;1277;22563;-68
2022/02/17 05:13:39;;;;;;;;;;;;;;;9.53;81.07;96107.11;218424;1277;22603;-68
2022/02/17 05:19:25;;;;;;;;;;;;;;;9.55;81.01;96090.90;218508;1277;25347;-68
2022/02/17 05:24:47;;;;;;;;;;;;;;;9.59;80.94;96085.86;218372;1277;22556;-68
2022/02/17 05:36:10;;;;;;;;;;;;;;;9.67;80.68;96065.98;218412;1277;22563;-68
2022/02/17 05:41:50;;;;;;;;;;;;;;;;;;;;;
2022/02/17 05:46:58;;;;;;;;;;;;;;;9.75;80.50;96020.60;218450;1277;22689;-68
2022/02/17 05:52:15;;;;;;;;;;;;;;;9.77;80.43;96013.26;218067;1277;22562;-69
2022/02/17 05:57:19;;;;;;;;;;;;;;;9.81;80.27;95999.04;218401;1277;22612;-68
2022/02/17 06:02:27;;;;;;;;;;;;;;;9.87;80.12;95984.81;218462;1277;22532;-67
2022/02/17 06:07:29;;;;;;;;;;;;;;;9.92;79.91;95985.36;218246;1277;24106;-68
2022/02/17 06:12:46;;;;;;;;;;;;;;;9.98;79.75;95983.41;218331;1278;24238;-68
2022/02/17 06:17:48;;;;;;;;;;;;;;;10.08;79.48;95969.54;218480;1277;25824;-68
2022/02/17 06:22:50;;;;;;;;;;;;;;;10.17;79.35;95962.45;218302;1277;22915;-68
2022/02/17 06:28:07;;;;;;;;;;;;;;;10.26;78.95;95954.89;218374;1278;22548;-68
2022/02/17 06:33:10;;;;;;;;;;;;;;;10.33;78.73;95938.03;218412;1278;22610;-67
2022/02/17 06:38:15;;;;;;;;;;;;;;;10.33;78.50;95931.34;218683;1277;23031;-68
2022/02/17 06:43:19;;;;;;;;;;;;;;;10.36;78.20;95903.26;218542;1277;25313;-68
2022/02/17 06:48:46;;;;;;;;;;;;;;;10.40;78.14;95879.10;218294;1278;22567;-68
2022/02/17 06:53:51;;;;;;;;;;;;;;;10.43;78.08;95868.81;218127;1277;26005;-68
2022/02/17 07:04:26;;;;;;;;;;;;;;;10.44;78.01;95843.45;218299;1277;24224;-69
2022/02/17 07:09:52;;;;;;;;;;;;;;;10.01;76.64;96075.69;218256;1277;25522;-73
2022/02/17 07:29:52;;;;;;;;;;;;;;;;;;;;;
2022/02/17 07:42:49;;;;;;;;;;;;;;;;;;;;;
2022/02/17 07:49:11;;;;;;;;;;;;;;;4.35;87.09;96296.96;220023;1276;24297;-71
2022/02/17 07:55:04;;;;;;;;;;;;;;;;;;;;;
2022/02/17 08:01:29;;;;;;;;;;;;;;;;;;;;;
2022/02/17 08:07:35;;;;;;;;;;;;;;;;;;;;;
2022/02/17 08:13:49;;;;;;;;;;;;;;;4.61;91.34;96437.19;220612;1276;22721;-77
2022/02/17 08:19:41;;;;;;;;;;;;;;;4.73;90.44;96404.83;220103;1277;22538;-73
2022/02/17 08:26:01;;;;;;;;;;;;;;;;;;;;;
2022/02/17 08:31:51;;;;;;;;;;;;;;;4.81;88.91;96305.62;220014;1277;22602;-74
2022/02/17 08:37:18;;;;;;;;;;;;;;;4.96;88.84;96285.53;220130;1276;25250;-73
2022/02/17 08:43:08;;;;;;;;;;;;;;;5.14;88.55;96261.29;220091;1276;23162;-72
2022/02/17 08:49:21;;;;;;;;;;;;;;;5.31;88.25;96280.35;219574;1279;22641;-70
2022/02/17 08:54:26;;;;;;;;;;;;;;;5.44;88.50;96295.73;219600;1279;22696;-74
2022/02/17 08:59:54;;;;;;;;;;;;;;;5.56;88.49;96298.23;219511;1279;22526;-70
2022/02/17 09:04:59;;;;;;;;;;;;;;;5.58;88.10;96305.88;219625;1279;22622;-71
2022/02/17 09:10:45;;;;;;;;;;;;;;;5.55;88.04;96348.19;219675;1277;22609;-70
2022/02/17 09:15:53;;;;;;;;;;;;;;;5.59;87.86;96357.73;218167;1278;22491;-70
2022/02/17 09:21:17;;;;;;;;;;;;;;;5.70;87.69;96350.96;219729;1276;22555;-73
2022/02/17 09:26:29;;;;;;;;;;;;;;;;;;;;;
2022/02/17 09:31:49;;;;;;;;;;;;;;;5.97;87.87;96342.39;219925;1277;22538;-71
2022/02/17 09:36:56;;;;;;;;;;;;;;;6.19;87.41;96321.72;219934;1277;22535;-71
2022/02/17 09:43:06;;;;;;;;;;;;;;;6.62;87.30;96298.60;220291;1277;23792;-71
2022/02/17 09:48:31;;;;;;;;;;;;;;;7.21;86.46;96294.27;219865;1277;26400;-74
2022/02/17 09:54:21;;;;;;;;;;;;;;;;;;;;;
2022/02/17 10:06:10;;;;;;;;;;;;;;;8.36;79.11;96306.25;219790;1279;26065;-72
2022/02/17 10:11:30;;;;;;;;;;;;;;;8.62;78.95;96316.59;219965;1277;24399;-71
2022/02/17 10:17:06;;;;;;;;;;;;;;;8.94;75.09;96337.14;219947;1277;25093;-70
2022/02/17 10:28:10;;;;;;;;;;;;;;;9.22;72.41;96352.96;219983;1277;25228;-71
2022/02/17 10:33:24;;;;;;;;;;;;;;;;;;;;;
2022/02/17 10:39:22;;;;;;;;;;;;;;;9.74;71.32;96347.27;219903;1277;22561;-71
2022/02/17 10:45:17;;;;;;;;;;;;;;;10.08;68.33;96349.73;219916;1276;24190;-71
2022/02/17 10:50:53;;;;;;;;;;;;;;;;;;;;;
2022/02/17 10:56:51;;;;;;;;;;;;;;;9.91;68.03;96357.27;219994;1277;22867;-71
2022/02/17 11:01:57;;;;;;;;;;;;;;;9.90;67.83;96356.09;219973;1276;22524;-70
2022/02/17 11:07:04;;;;;;;;;;;;;;;9.91;66.54;96344.27;218529;1278;24261;-71
2022/02/17 11:12:09;;;;;;;;;;;;;;;9.88;65.75;96327.93;215958;1278;2958671;-71
2022/02/17 11:17:48;;;;;;;;;;;;;;;9.89;65.44;96328.80;220137;1277;23855;-71
2022/02/17 11:23:46;;;;;;;;;;;;;;;10.08;66.66;96321.32;219828;1278;24860;-71
2022/02/17 11:29:52;;;;;;;;;;;;;;;10.00;64.60;96324.16;219903;1277;22787;-71
2022/02/17 11:36:03;;;;;;;;;;;;;;;9.92;62.93;96329.02;218324;1277;24293;-71
2022/02/17 11:41:36;;;;;;;;;;;;;;;9.89;60.04;96335.13;219862;1276;22532;-71
2022/02/17 11:47:19;;;;;;;;;;;;;;;10.09;58.14;96327.69;219630;1276;24962;-71
2022/02/17 11:53:02;;;;;;;;;;;;;;;10.53;57.53;96335.02;219737;1276;22571;-71
2022/02/17 11:59:29;;;;;;;;;;;;;;;;;;;;;
2022/02/17 12:05:22;;;;;;;;;;;;;;;10.73;53.31;96354.59;220719;1278;23527;-70
2022/02/17 12:11:26;;;;;;;;;;;;;;;;;;;;;
2022/02/17 12:17:13;;;;;;;;;;;;;;;10.07;51.99;96360.95;220692;1277;22570;-71
2022/02/17 12:23:13;;;;;;;;;;;;;;;10.16;53.27;96378.05;220088;1278;23917;-70
2022/02/17 12:28:43;;;;;;;;;;;;;;;10.10;51.80;96386.94;220622;1277;22695;-70
2022/02/17 12:34:11;;;;;;;;;;;;;;;;;;;;;
2022/02/17 12:39:52;;;;;;;;;;;;;;;;;;;;;
2022/02/17 12:45:47;;;;;;;;;;;;;;;9.56;54.09;96408.95;218855;1276;22628;-68
2022/02/17 12:57:15;;;;;;;;;;;;;;;;;;;;;
2022/02/17 13:02:48;;;;;;;;;;;;;;;9.33;56.50;96423.66;217984;1277;22591;-69
2022/02/17 13:07:54;;;;;;;;;;;;;;;9.56;56.67;96433.92;218591;1277;22570;-69
2022/02/17 13:13:37;;;;;;;;;;;;;;;;;;;;;
2022/02/17 13:19:45;;;;;;;;;;;;;;;;;;;;;
2022/02/17 13:25:42;;;;;;;;;;;;;;;9.88;52.67;96436.96;217966;1276;22531;-69
2022/02/17 13:31:37;;;;;;;;;;;;;;;;;;;;;
2022/02/17 13:37:44;;;;;;;;;;;;;;;10.05;52.65;96468.37;220439;1278;23440;-69
2022/02/17 13:49:34;;;;;;;;;;;;;;;10.50;52.90;96478.58;220667;1276;22591;-69
2022/02/17 13:55:30;;;;;;;;;;;;;;;10.56;52.43;96476.05;217585;1278;25317;-70
2022/02/17 14:01:45;;;;;;;;;;;;;;;10.51;51.87;96482.20;220790;1277;24240;-69
2022/02/17 14:13:17;;;;;;;;;;;;;;;10.82;50.90;96498.02;217895;1279;22537;-70
2022/02/17 14:19:04;;;;;;;;;;;;;;;10.85;49.41;96505.84;218085;1277;24281;-69
2022/02/17 14:24:13;;;;;;;;;;;;;;;10.89;49.54;96509.70;220699;1276;22785;-68
2022/02/17 14:29:31;;;;;;;;;;;;;;;10.71;49.41;96524.55;219751;1277;23202;-69
2022/02/17 14:41:25;;;;;;;;;;;;;;;10.34;50.22;96542.22;220988;1278;25240;-69
2022/02/17 14:47:16;;;;;;;;;;;;;;;10.25;49.36;96562.70;220223;1281;22557;-70
2022/02/17 14:53:00;;;;;;;;;;;;;;;10.10;49.58;96570.31;220598;1278;22595;-70
2022/02/17 14:59:10;;;;;;;;;;;;;;;;;;;;;
2022/02/17 15:04:57;;;;;;;;;;;;;;;9.74;49.14;96593.85;218778;1281;22546;-69
2022/02/17 15:10:38;;;;;;;;;;;;;;;9.49;49.48;96604.02;217887;1277;22538;-69
2022/02/17 15:16:15;;;;;;;;;;;;;;;9.20;50.94;96601.73;220506;1278;23103;-69
2022/02/17 15:21:20;;;;;;;;;;;;;;;9.05;51.26;96616.50;220328;1278;22559;-70
2022/02/17 15:27:33;;;;;;;;;;;;;;;8.91;50.98;96619.85;217904;1278;25928;-69
2022/02/17 15:39:10;;;;;;;;;;;;;;;;;;;;;
2022/02/17 15:44:53;;;;;;;;;;;;;;;8.74;48.71;96659.40;218029;1279;25258;-70
2022/02/17 15:50:40;;;;;;;;;;;;;;;8.71;47.33;96697.80;218026;1279;22531;-70
2022/02/17 15:55:51;;;;;;;;;;;;;;;8.68;47.61;96698.13;217893;1278;22568;-70
2022/02/17 16:01:51;;;;;;;;;;;;;;;8.61;47.78;96722.67;217981;1279;24213;-70
2022/02/17 16:07:30;;;;;;;;;;;;;;;8.53;48.88;96708.27;218037;1279;22548;-70
2022/02/17 16:12:55;;;;;;;;;;;;;;;;;;;;;
2022/02/17 16:18:44;;;;;;;;;;;;;;;;;;;;;
2022/02/17 16:37:11;;;;;;;;;;;;;;;8.04;50.05;96780.48;220768;1279;22561;-70
2022/02/17 16:43:07;;;;;;;;;;;;;;;7.98;49.91;96798.61;218161;1279;22688;-70
2022/02/17 16:49:03;;;;;;;;;;;;;;;;;;;;;
2022/02/17 16:54:42;;;;;;;;;;;;;;;;;;;;;
2022/02/17 17:01:07;;;;;;;;;;;;;;;;;;;;;
2022/02/17 17:07:03;;;;;;;;;;;;;;;7.83;51.53;96854.59;220390;1277;23151;-70
2022/02/17 17:12:45;;;;;;;;;;;;;;;7.76;52.29;96887.25;220611;1279;22537;-69
2022/02/17 17:18:25;;;;;;;;;;;;;;;7.55;52.94;96905.86;220376;1277;22586;-70
2022/02/17 17:23:48;;;;;;;;;;;;;;;7.33;56.40;96938.47;220363;1278;22868;-70
2022/02/17 17:29:41;;;;;;;;;;;;;;;6.74;58.86;96958.48;220447;1278;23215;-69
2022/02/17 17:35:17;;;;;;;;;;;;;;;6.57;58.07;96971.22;217899;1281;23963;-69
2022/02/17 17:46:49;;;;;;;;;;;;;;;6.60;58.42;96979.27;217708;1280;22557;-69
2022/02/17 17:52:41;;;;;;;;;;;;;;;6.60;58.36;96993.02;220222;1278;22597;-69
2022/02/17 17:58:03;;;;;;;;;;;;;;;;;;;;;
2022/02/17 18:03:22;;;;;;;;;;;;;;;6.60;58.11;97007.86;218162;1278;22580;-69
2022/02/17 18:09:30;;;;;;;;;;;;;;;6.63;57.90;97018.38;217908;1279;22573;-70
2022/02/17 18:15:24;;;;;;;;;;;;;;;6.62;57.60;97028.56;217886;1278;22652;-69
2022/02/17 18:20:46;;;;;;;;;;;;;;;6.61;57.59;97038.54;217945;1278;26405;-69
2022/02/17 18:26:19;;;;;;;;;;;;;;;6.58;58.12;97053.36;218861;1278;24000;-69
2022/02/17 18:31:30;;;;;;;;;;;;;;;6.54;57.97;97070.26;220341;1277;22576;-69
2022/02/17 18:36:38;;;;;;;;;;;;;;;6.46;58.16;97075.88;220251;1277;23168;-69
2022/02/17 18:42:05;;;;;;;;;;;;;;;6.48;58.03;97088.19;217828;1278;22560;-69
2022/02/17 18:47:34;;;;;;;;;;;;;;;6.46;57.15;97086.69;220542;1278;23214;-69
2022/02/17 18:53:07;;;;;;;;;;;;;;;6.45;57.18;97100.91;220459;1277;23461;-70
2022/02/17 18:59:29;;;;;;;;;;;;;;;;;;;;;
2022/02/17 19:04:59;;;;;;;;;;;;;;;;;;;;;
2022/02/17 19:10:39;;;;;;;;;;;;;;;6.42;57.32;97180.15;218004;1278;24242;-69
2022/02/17 19:15:48;;;;;;;;;;;;;;;6.05;63.74;97253.26;218092;1277;25423;-69
2022/02/17 19:21:02;;;;;;;;;;;;;;;5.19;64.86;97195.77;218556;1277;22705;-68
2022/02/17 19:26:57;;;;;;;;;;;;;;;4.62;65.94;97197.61;217921;1278;25269;-69
2022/02/17 19:34:04;;;;;;;;;;;;;;;4.43;66.92;97204.83;212242;1313;595685;-67
2022/02/17 19:41:42;;;;;;;;;;;;;;;4.52;66.84;97207.79;211489;1315;584193;-69
2022/02/17 19:47:25;;;;;;;;;;;;;;;4.50;66.70;97218.05;215943;1289;32205;-69
2022/02/17 19:52:43;;;;;;;;;;;;;;;;;;;;;
2022/02/17 19:58:08;;;;;;;;;;;;;;;4.54;66.71;97227.75;217066;1286;22674;-69
2022/02/17 20:03:46;;;;;;;;;;;;;;;4.61;66.09;97228.19;216598;1286;22700;-68
2022/02/17 20:09:07;;;;;;;;;;;;;;;4.72;65.51;97240.75;220932;1285;32399;-69
2022/02/17 20:14:13;;;;;;;;;;;;;;;4.82;64.89;97240.50;219212;1286;23298;-69
2022/02/17 20:19:44;;;;;;;;;;;;;;;4.93;63.97;97248.15;216881;1286;24778;-69
2022/02/17 20:24:57;;;;;;;;;;;;;;;5.01;63.21;97280.20;216229;1286;23957;-69
2022/02/17 20:30:24;;;;;;;;;;;;;;;5.14;62.21;97295.88;216786;1286;22612;-69
2022/02/17 20:35:53;;;;;;;;;;;;;;;5.27;61.39;97322.09;216649;1286;22577;-70
2022/02/17 20:41:13;;;;;;;;;;;;;;;5.29;61.44;97325.06;217985;1277;24248;-69
2022/02/17 20:52:14;;;;;;;;;;;;;;;5.18;61.77;97325.87;217961;1277;22604;-69
2022/02/17 20:57:27;;;;;;;;;;;;;;;5.11;61.64;97333.63;218144;1277;25450;-70
2022/02/17 21:02:43;;;;;;;;;;;;;;;5.05;61.83;97343.30;218012;1277;22620;-69
2022/02/17 21:07:57;;;;;;;;;;;;;;;5.03;61.65;97347.85;218982;1277;24204;-69
2022/02/17 21:13:33;;;;;;;;;;;;;;;;;;;;;
2022/02/17 21:19:19;;;;;;;;;;;;;;;4.98;61.40;97375.88;219516;1276;24160;-68
2022/02/17 21:25:18;;;;;;;;;;;;;;;;;;;;;
2022/02/17 21:31:04;;;;;;;;;;;;;;;4.82;61.78;97392.16;220497;1276;22551;-69
2022/02/17 21:36:27;;;;;;;;;;;;;;;4.75;61.86;97399.42;217950;1277;22553;-69
2022/02/17 21:42:17;;;;;;;;;;;;;;;;;;;;;
2022/02/17 21:48:00;;;;;;;;;;;;;;;;;;;;;
2022/02/17 21:53:32;;;;;;;;;;;;;;;4.99;60.71;97425.66;218047;1280;22578;-69
2022/02/17 21:59:40;;;;;;;;;;;;;;;5.08;60.19;97434.74;218056;1278;22553;-69
2022/02/17 22:05:20;;;;;;;;;;;;;;;5.08;60.72;97447.23;220412;1279;22577;-70
2022/02/17 22:11:13;;;;;;;;;;;;;;;;;;;;;
2022/02/17 22:16:22;;;;;;;;;;;;;;;4.82;61.58;97461.44;217958;1280;25273;-69
2022/02/17 22:21:56;;;;;;;;;;;;;;;;;;;;;
2022/02/17 22:27:29;;;;;;;;;;;;;;;;;;;;;
2022/02/17 22:34:16;;;;;;;;;;;;;;;4.67;62.56;97495.23;217732;1280;22696;-69
2022/02/17 22:39:15;;;;;;;;;;;;;;;;;;;;;
2022/02/17 22:44:44;;;;;;;;;;;;;;;4.97;60.57;97506.95;217993;1277;22560;-69
2022/02/17 22:49:53;;;;;;;;;;;;;;;5.16;59.13;97512.84;218018;1277;23011;-69
2022/02/17 22:55:39;;;;;;;;;;;;;;;;;;;;;
2022/02/17 23:00:57;;;;;;;;;;;;;;;5.34;58.18;97539.09;218124;1277;22528;-68
2022/02/17 23:07:09;;;;;;;;;;;;;;;5.31;58.51;97551.97;217840;1277;22586;-69
2022/02/17 23:13:24;;;;;;;;;;;;;;;;;;;;;
2022/02/17 23:19:46;;;;;;;;;;;;;;;5.27;58.72;97560.14;218000;1278;23096;-69
2022/02/17 23:25:30;;;;;;;;;;;;;;;5.20;57.86;97571.69;217897;1277;22548;-68
2022/02/17 23:31:54;;;;;;;;;;;;;;;5.20;56.02;97591.71;220455;1277;23155;-69
2022/02/17 23:37:15;;;;;;;;;;;;;;;5.31;55.58;97593.98;217820;1277;24909;-69
2022/02/17 23:43:16;;;;;;;;;;;;;;;;;;;;;
2022/02/17 23:48:54;;;;;;;;;;;;;;;;;;;;;
2022/02/17 23:54:41;;;;;;;;;;;;;;;5.34;56.02;97612.80;218019;1277;23791;-69
